Temp: 11.4°C   Baro: 1005.1mb
  Wind: 11.0mph   Dir: WNW (287°)
  Rain: 7.8mm (0.0mm/hr)
  Solar: 58W/m2  Hum: 92%
 
Bath Spa Weather Historical Data
Daily Summary for February 14, 2020 Units:  English    Metric   Both
Next Day »
Daily Weekly Monthly Yearly Custom
  High: Low: Average:
Temperature: 52.9 °F 37 °F 46.9 °F
Dew Point: 50.4 °F 34.9 °F 43.9 °F
Humidity: 94% 78% 89%
Wind Speed: 16.1mph 0mph 4.6mph
Wind Gust: 24mph - -
Wind direction- - SW
Pressure: 30 in 29.9 in -
Precipitation: 0.16 in    
Historical Graphs
 
 
Tabular Data for February 14, 2020
Time Temperature Dew Point Pressure Wind direction Wind Speed Wind Gust Humidity Rainfall Rate (Hourly) solar
00:00 44.4 °F 38.3 °F 29.9 in WNW 0.9 mph 2 mph 79% 0 in 0.00 W/m2
00:05 44.4 °F 38.3 °F 29.9 in WNW 0.9 mph 3 mph 79% 0 in 0.00 W/m2
00:10 44.4 °F 38.7 °F 29.9 in WSW 0.9 mph 3 mph 80% 0 in 0.00 W/m2
00:15 44.2 °F 38.5 °F 29.9 in West 0.9 mph 2 mph 80% 0 in 0.00 W/m2
00:20 44.2 °F 38.5 °F 29.9 in Calm   1 mph 80% 0 in 0.00 W/m2
00:25 44.1 °F 38.3 °F 29.9 in Calm     80% 0 in 0.00 W/m2
00:31 43.9 °F 38.5 °F 29.9 in Calm     81% 0 in 0.00 W/m2
00:35 43.5 °F 38.1 °F 29.9 in Calm     81% 0 in 0.00 W/m2
00:40 43.2 °F 37.8 °F 29.9 in West 0.9 mph 2 mph 81% 0 in 0.00 W/m2
00:45 42.6 °F 37.6 °F 29.9 in Calm   2 mph 82% 0 in 0.00 W/m2
00:50 42.3 °F 37.4 °F 29.9 in West 2.9 mph 3 mph 83% 0 in 0.00 W/m2
00:55 41.9 °F 37 °F 29.9 in West 0.9 mph 2 mph 83% 0 in 0.00 W/m2
01:01 41.5 °F 37 °F 29.9 in Calm     84% 0 in 0.00 W/m2
01:05 41.2 °F 36.7 °F 30 in West 0.9 mph 1 mph 84% 0 in 0.00 W/m2
01:10 41 °F 36.9 °F 29.9 in WNW 2 mph 3 mph 85% 0 in 0.00 W/m2
01:15 40.8 °F 36.7 °F 29.9 in NNW 0.9 mph 3 mph 85% 0 in 0.00 W/m2
01:20 40.8 °F 37 °F 30 in NNW 0.9 mph 3 mph 86% 0 in 0.00 W/m2
01:25 40.8 °F 37 °F 30 in Calm   2 mph 86% 0 in 0.00 W/m2
01:30 40.8 °F 37 °F 30 in Calm   1 mph 86% 0 in 0.00 W/m2
01:35 40.8 °F 37 °F 30 in Calm     86% 0 in 0.00 W/m2
01:40 40.8 °F 37 °F 30 in NNW 2 mph 2 mph 86% 0 in 0.00 W/m2
01:45 40.8 °F 37.2 °F 30 in Calm     87% 0 in 0.00 W/m2
01:50 40.8 °F 37.2 °F 30 in Calm     87% 0 in 0.00 W/m2
01:55 40.8 °F 37.2 °F 30 in Calm     87% 0 in 0.00 W/m2
02:00 40.8 °F 37.2 °F 30 in NNW 0.9 mph 3 mph 87% 0 in 0.00 W/m2
02:05 40.8 °F 37.2 °F 30 in North 2.9 mph 3 mph 87% 0 in 0.00 W/m2
02:10 40.8 °F 37.2 °F 30 in North 0.9 mph 1 mph 87% 0 in 0.00 W/m2
02:15 40.6 °F 37 °F 30 in North 0.9 mph 1 mph 87% 0 in 0.00 W/m2
02:20 40.6 °F 37 °F 30 in North 0.9 mph 1 mph 87% 0 in 0.00 W/m2
02:25 40.5 °F 36.9 °F 30 in North 0.9 mph 2 mph 87% 0 in 0.00 W/m2
02:30 40.3 °F 36.7 °F 30 in Calm     87% 0 in 0.00 W/m2
02:36 39.9 °F 36.3 °F 30 in Calm     87% 0 in 0.00 W/m2
02:40 39.9 °F 36.7 °F 30 in Calm   2 mph 88% 0 in 0.00 W/m2
02:45 39.7 °F 36.5 °F 30 in North 0.9 mph 3 mph 88% 0 in 0.00 W/m2
02:50 39.6 °F 36.3 °F 30 in North 0.9 mph 2 mph 88% 0 in 0.00 W/m2
02:55 39.4 °F 36.1 °F 30 in North 0.9 mph 2 mph 88% 0 in 0.00 W/m2
03:00 39 °F 35.8 °F 30 in North 2 mph 2 mph 88% 0 in 0.00 W/m2
03:05 38.8 °F 36 °F 30 in Calm   2 mph 89% 0 in 0.00 W/m2
03:10 38.7 °F 35.8 °F 30 in North 2 mph 2 mph 89% 0 in 0.00 W/m2
03:15 38.7 °F 35.8 °F 30 in North 0.9 mph 2 mph 89% 0 in 0.00 W/m2
03:20 38.5 °F 35.6 °F 30 in Calm   1 mph 89% 0 in 0.00 W/m2
03:26 38.1 °F 35.2 °F 30 in North 0.9 mph 2 mph 89% 0 in 0.00 W/m2
03:30 38.1 °F 35.2 °F 30 in Calm   4 mph 89% 0 in 0.00 W/m2
03:35 38.1 °F 35.2 °F 30 in NNW 2 mph 2 mph 89% 0 in 0.00 W/m2
03:40 38.5 °F 35.8 °F 30 in NNW 0.9 mph 2 mph 90% 0 in 0.00 W/m2
03:45 38.5 °F 35.8 °F 30 in Calm     90% 0 in 0.00 W/m2
03:50 38.3 °F 35.6 °F 30 in Calm     90% 0 in 0.00 W/m2
03:55 37.8 °F 35.1 °F 30 in NNW 0.9 mph 2 mph 90% 0 in 0.00 W/m2
04:00 37.8 °F 35.1 °F 30 in NNW 2.9 mph 3 mph 90% 0 in 0.00 W/m2
04:05 37.9 °F 35.2 °F 30 in NNW 0.9 mph 3 mph 90% 0 in 0.00 W/m2
04:10 37.9 °F 35.2 °F 30 in Calm   2 mph 90% 0 in 0.00 W/m2
04:15 37.9 °F 35.2 °F 30 in NNW 3 mph 3 mph 90% 0 in 0.00 W/m2
04:20 38.1 °F 35.4 °F 30 in Calm   2 mph 90% 0 in 0.00 W/m2
04:25 37.9 °F 35.2 °F 30 in NNW 2 mph 3 mph 90% 0 in 0.00 W/m2
04:30 38.1 °F 35.4 °F 30 in NNW 2 mph 2 mph 90% 0 in 0.00 W/m2
04:35 38.1 °F 35.8 °F 30 in NNW 0.9 mph 2 mph 91% 0 in 0.00 W/m2
04:40 38.3 °F 36 °F 30 in NNW 2 mph 3 mph 91% 0 in 0.00 W/m2
04:45 38.3 °F 36 °F 30 in North 2 mph 3 mph 91% 0 in 0.00 W/m2
04:50 38.8 °F 36.5 °F 30 in North 0.9 mph 2 mph 91% 0 in 0.00 W/m2
04:55 38.7 °F 36.3 °F 30 in North 2.9 mph 4 mph 91% 0 in 0.00 W/m2
05:00 38.8 °F 36.5 °F 30 in North 2.9 mph 4 mph 91% 0 in 0.00 W/m2
05:05 38.8 °F 36.5 °F 30 in Calm   1 mph 91% 0 in 0.00 W/m2
05:10 38.8 °F 36.5 °F 30 in Calm   1 mph 91% 0 in 0.00 W/m2
05:15 38.8 °F 36.5 °F 30 in North 0.9 mph 2 mph 91% 0 in 0.00 W/m2
05:20 38.8 °F 36.5 °F 30 in Calm   2 mph 91% 0 in 0.00 W/m2
05:25 38.8 °F 36.5 °F 30 in North 0.9 mph 2 mph 91% 0 in 0.00 W/m2
05:30 38.7 °F 36.3 °F 30 in North 0.9 mph 2 mph 91% 0 in 0.00 W/m2
05:35 38.5 °F 36.1 °F 30 in Calm   2 mph 91% 0 in 0.00 W/m2
05:40 38.3 °F 36 °F 30 in North 0.9 mph 2 mph 91% 0 in 0.00 W/m2
05:45 38.1 °F 35.8 °F 30 in Calm   2 mph 91% 0 in 0.00 W/m2
05:50 37.8 °F 35.4 °F 30 in North 2 mph 2 mph 91% 0 in 0.00 W/m2
05:55 37.2 °F 34.9 °F 30 in North 2.9 mph 4 mph 91% 0 in 0.00 W/m2
06:00 37.4 °F 35.1 °F 30 in North 2.9 mph 4 mph 91% 0 in 0.00 W/m2
06:05 37.6 °F 35.2 °F 30 in North 2 mph 3 mph 91% 0 in 0.00 W/m2
06:10 37.2 °F 35.1 °F 30 in North 2 mph 3 mph 92% 0 in 0.00 W/m2
06:15 37.6 °F 35.4 °F 30 in North 0.9 mph 1 mph 92% 0 in 0.00 W/m2
06:20 37.4 °F 35.2 °F 30 in Calm   2 mph 92% 0 in 0.00 W/m2
06:25 37.2 °F 35.1 °F 30 in Calm     92% 0 in 0.00 W/m2
06:30 37.2 °F 35.1 °F 30 in Calm     92% 0 in 0.00 W/m2
06:35 37 °F 34.9 °F 30 in Calm   1 mph 92% 0 in 0.00 W/m2
06:40 37.2 °F 35.1 °F 30 in North 4 mph 4 mph 92% 0 in 0.00 W/m2
06:45 37.8 °F 35.6 °F 30 in North 0.9 mph 3 mph 92% 0 in 0.00 W/m2
06:50 37.6 °F 35.4 °F 30 in North 0.9 mph 2 mph 92% 0 in 0.00 W/m2
06:55 37.8 °F 35.6 °F 30 in North 2 mph 3 mph 92% 0 in 0.00 W/m2
07:00 37.9 °F 35.8 °F 30 in Calm   1 mph 92% 0 in 0.00 W/m2
07:05 37.6 °F 35.4 °F 30 in Calm   1 mph 92% 0 in 0.00 W/m2
07:10 37.6 °F 35.4 °F 30 in North 2 mph 3 mph 92% 0 in 0.00 W/m2
07:15 38.1 °F 36 °F 30 in Calm   1 mph 92% 0 in 0.00 W/m2
07:20 37.8 °F 35.6 °F 30 in Calm   3 mph 92% 0 in 0.00 W/m2
07:25 37 °F 34.9 °F 30 in Calm   1 mph 92% 0 in 0.00 W/m2
07:30 37 °F 34.9 °F 30 in North 2.9 mph 3 mph 92% 0 in 5.00 W/m2
07:35 37 °F 34.9 °F 30 in Calm   3 mph 92% 0 in 7.00 W/m2
07:40 37.8 °F 36 °F 30 in NE 2.9 mph 3 mph 93% 0 in 11.00 W/m2
07:45 38.3 °F 36.5 °F 30 in East 2 mph 2 mph 93% 0 in 16.00 W/m2
07:50 38.3 °F 36.5 °F 30 in NNW 2 mph 4 mph 93% 0 in 19.00 W/m2
07:55 38.7 °F 36.9 °F 30 in NNW 2.9 mph 3 mph 93% 0 in 26.00 W/m2
08:00 39 °F 37.2 °F 30 in NNW 0.9 mph 4 mph 93% 0 in 26.00 W/m2
08:05 39.6 °F 37.8 °F 30 in NNW 0.9 mph 3 mph 93% 0 in 28.00 W/m2
08:10 39.4 °F 37.6 °F 30 in Calm   1 mph 93% 0 in 30.00 W/m2
08:15 39.6 °F 37.8 °F 30 in SSW 2 mph 2 mph 93% 0 in 35.00 W/m2
08:20 39.4 °F 37.6 °F 30 in Calm   2 mph 93% 0 in 47.00 W/m2
08:25 39.9 °F 38.1 °F 30 in WSW 0.9 mph 1 mph 93% 0 in 54.00 W/m2
08:30 40.8 °F 39 °F 30 in SW 0.9 mph 1 mph 93% 0 in 65.00 W/m2
08:35 41.9 °F 40.1 °F 30 in SW 2 mph 2 mph 93% 0 in 70.00 W/m2
08:40 43 °F 41.2 °F 30 in ESE 0.9 mph 4 mph 93% 0 in 93.00 W/m2
08:45 43.9 °F 41.9 °F 30 in Calm   1 mph 93% 0 in 123.00 W/m2
08:50 43.9 °F 41.9 °F 30 in Calm   4 mph 93% 0 in 120.00 W/m2
08:55 44.4 °F 42.3 °F 30 in SSW 0.9 mph 5 mph 92% 0 in 62.00 W/m2
09:00 44.8 °F 42.6 °F 30 in South 2 mph 8 mph 92% 0 in 28.00 W/m2
09:05 45.1 °F 43 °F 30 in SSW 2 mph 7 mph 92% 0 in 44.00 W/m2
09:10 45.3 °F 42.8 °F 30 in SW 2 mph 7 mph 91% 0 in 58.00 W/m2
09:15 45.7 °F 43.2 °F 30 in SSW 4 mph 12 mph 91% 0 in 51.00 W/m2
09:20 46.2 °F 43.5 °F 30 in South 11 mph 11 mph 90% 0 in 118.00 W/m2
09:25 46.6 °F 43.5 °F 30 in SW 6 mph 14 mph 89% 0 in 102.00 W/m2
09:30 46.9 °F 43.9 °F 30 in SSW 12.1 mph 17 mph 89% 0 in 123.00 W/m2
09:35 47.5 °F 44.1 °F 30 in SSW 4.9 mph 13 mph 88% 0 in 146.00 W/m2
09:40 47.7 °F 44.1 °F 30 in SSW 8.1 mph 10 mph 87% 0 in 114.00 W/m2
09:45 47.7 °F 44.1 °F 30 in SSW 2.9 mph 4 mph 87% 0 in 148.00 W/m2
09:50 47.8 °F 44.2 °F 30 in SSW 4.9 mph 6 mph 87% 0 in 163.00 W/m2
09:55 48.2 °F 44.6 °F 30 in SW 6 mph 12 mph 87% 0 in 183.00 W/m2
10:00 48.6 °F 44.6 °F 30 in SSW 4 mph 8 mph 86% 0 in 98.00 W/m2
10:05 48.7 °F 44.8 °F 30 in SSW 2.9 mph 5 mph 86% 0 in 83.00 W/m2
10:10 48.9 °F 45 °F 30 in SW 10.1 mph 12 mph 86% 0 in 83.00 W/m2
10:15 48.9 °F 44.6 °F 30 in West 4.9 mph 5 mph 85% 0 in 105.00 W/m2
10:20 49.3 °F 45 °F 30 in Calm   5 mph 85% 0 in 135.00 W/m2
10:25 49.5 °F 45.1 °F 30 in SSW 4.9 mph 5 mph 85% 0 in 236.00 W/m2
10:30 50.2 °F 45.5 °F 30 in South 0.9 mph 5 mph 84% 0 in 265.00 W/m2
10:35 50.7 °F 45.7 °F 30 in SSW 2.9 mph 14 mph 83% 0 in 378.00 W/m2
10:40 51.3 °F 46 °F 30 in SSE 4 mph 15 mph 82% 0 in 313.00 W/m2
10:46 51.4 °F 45.9 °F 30 in West 2.9 mph 11 mph 81% 0 in 318.00 W/m2
10:50 51.6 °F 45.7 °F 30 in SSW 6.9 mph 18 mph 80% 0 in 327.00 W/m2
10:55 51.6 °F 45.7 °F 30 in West 8.1 mph 17 mph 80% 0 in 295.00 W/m2
11:00 51.4 °F 45.5 °F 30 in SW 11 mph 19 mph 80% 0 in 323.00 W/m2
11:05 51.6 °F 45.3 °F 30 in SSW 8.9 mph 23 mph 79% 0 in 355.00 W/m2
11:10 52 °F 46 °F 30 in SSW 6.9 mph 15 mph 80% 0 in 392.00 W/m2
11:15 52.2 °F 45.9 °F 30 in SW 14.1 mph 19 mph 79% 0 in 401.00 W/m2
11:20 52.3 °F 46 °F 30 in West 6 mph 22 mph 79% 0 in 420.00 W/m2
11:25 52.9 °F 46.2 °F 30 in WNW 8.1 mph 17 mph 78% 0 in 323.00 W/m2
11:30 52.5 °F 45.9 °F 30 in SW 6 mph 19 mph 78% 0 in 281.00 W/m2
11:35 52.3 °F 45.7 °F 30 in WSW 11 mph 24 mph 78% 0 in 206.00 W/m2
11:40 52.2 °F 45.5 °F 30 in SW 15 mph 19 mph 78% 0 in 155.00 W/m2
11:45 52.2 °F 45.5 °F 30 in SW 14.1 mph 21 mph 78% 0 in 56.00 W/m2
11:50 52 °F 45.3 °F 30 in West 13 mph 20 mph 78% 0 in 49.00 W/m2
11:55 51.6 °F 45 °F 30 in SW 6.9 mph 18 mph 78% 0 in 49.00 W/m2
12:00 51.6 °F 45 °F 30 in SW 14.1 mph 22 mph 78% 0 in 51.00 W/m2
12:05 51.6 °F 45.3 °F 30 in South 6.9 mph 21 mph 79% 0 in 58.00 W/m2
12:10 51.6 °F 45.3 °F 30 in SW 4 mph 22 mph 79% 0 in 134.00 W/m2
12:15 51.6 °F 45.3 °F 30 in SW 6 mph 16 mph 79% 0 in 162.00 W/m2
12:20 51.6 °F 45.3 °F 30 in South 13 mph 14 mph 79% 0 in 178.00 W/m2
12:25 51.6 °F 45.7 °F 30 in WSW 14.1 mph 17 mph 80% 0 in 172.00 W/m2
12:30 51.6 °F 45.7 °F 30 in SSW 8.9 mph 19 mph 80% 0 in 186.00 W/m2
12:35 52 °F 46 °F 30 in SW 11 mph 17 mph 80% 0 in 192.00 W/m2
12:40 52 °F 46 °F 30 in West 14.1 mph 18 mph 80% 0 in 243.00 W/m2
12:45 52.2 °F 46.2 °F 30 in SSW 8.9 mph 20 mph 80% 0 in 246.00 W/m2
12:50 52.2 °F 46.2 °F 30 in South 14.1 mph 21 mph 80% 0 in 243.00 W/m2
12:55 52.2 °F 46.2 °F 30 in South 8.9 mph 17 mph 80% 0 in 221.00 W/m2
13:00 52.2 °F 46.6 °F 30 in SW 10.1 mph 19 mph 81% 0 in 220.00 W/m2
13:05 52.2 °F 46.6 °F 30 in WSW 12.1 mph 18 mph 81% 0 in 199.00 W/m2
13:10 52.2 °F 46.6 °F 30 in SW 6.9 mph 16 mph 81% 0 in 207.00 W/m2
13:15 52.3 °F 46.9 °F 30 in SW 4.9 mph 14 mph 82% 0 in 172.00 W/m2
13:20 52.2 °F 46.8 °F 30 in South 6.9 mph 16 mph 82% 0 in 125.00 W/m2
13:25 52.2 °F 46.8 °F 30 in SW 6 mph 16 mph 82% 0 in 70.00 W/m2
13:30 52.2 °F 47.1 °F 30 in SW 8.1 mph 13 mph 83% 0 in 54.00 W/m2
13:35 52 °F 46.9 °F 30 in SW 4 mph 8 mph 83% 0 in 53.00 W/m2
13:40 52 °F 47.3 °F 30 in SW 6.9 mph 14 mph 84% 0 in 44.00 W/m2
13:45 51.8 °F 47.5 °F 30 in South 10.1 mph 14 mph 85% 0 in 44.00 W/m2
13:50 51.6 °F 47.3 °F 30 in SSW 2 mph 12 mph 85% 0 in 47.00 W/m2
13:56 51.6 °F 47.5 °F 30 in SW 4 mph 10 mph 86% 0 in 49.00 W/m2
14:00 51.8 °F 47.7 °F 30 in WSW 8.9 mph 12 mph 86% 0 in 42.00 W/m2
14:05 52 °F 47.8 °F 30 in SW 8.9 mph 10 mph 86% 0 in 40.00 W/m2
14:10 52 °F 47.8 °F 30 in SSE 6.9 mph 15 mph 86% 0 in 58.00 W/m2
14:15 52 °F 47.8 °F 30 in SW 6 mph 11 mph 86% 0 in 114.00 W/m2
14:20 52.2 °F 48.4 °F 30 in West 6.9 mph 12 mph 87% 0 in 100.00 W/m2
14:25 52.2 °F 48.4 °F 29.9 in SSW 15 mph 16 mph 87% 0 in 127.00 W/m2
14:30 52.2 °F 48.4 °F 30 in South 15 mph 22 mph 87% 0 in 155.00 W/m2
14:35 52.3 °F 48.6 °F 30 in SW 8.1 mph 17 mph 87% 0 in 121.00 W/m2
14:40 52.3 °F 48.6 °F 30 in SSW 16.1 mph 23 mph 87% 0 in 135.00 W/m2
14:45 52.3 °F 48.6 °F 30 in SSW 8.1 mph 19 mph 87% 0 in 84.00 W/m2
14:50 52.3 °F 48.6 °F 30 in SW 13 mph 15 mph 87% 0 in 69.00 W/m2
14:55 52.2 °F 48.4 °F 30 in SW 4.9 mph 18 mph 87% 0 in 51.00 W/m2
15:00 52.2 °F 48.4 °F 30 in SSE 8.9 mph 20 mph 87% 0 in 46.00 W/m2
15:05 52.2 °F 48.4 °F 30 in SW 13 mph 17 mph 87% 0 in 37.00 W/m2
15:10 52.2 °F 48.4 °F 30 in SSW 6 mph 13 mph 87% 0 in 40.00 W/m2
15:15 52 °F 48.6 °F 30 in South 11 mph 18 mph 88% 0 in 32.00 W/m2
15:20 52 °F 48.6 °F 30 in South 10.1 mph 14 mph 88% 0 in 44.00 W/m2
15:25 51.8 °F 48.7 °F 30 in South 8.1 mph 17 mph 89% 0 in 39.00 W/m2
15:30 51.6 °F 48.6 °F 30 in SSW 6 mph 14 mph 89% 0 in 54.00 W/m2
15:35 51.6 °F 48.7 °F 30 in South 6.9 mph 13 mph 90% 0 in 49.00 W/m2
15:40 51.4 °F 48.6 °F 30 in South 12.1 mph 12 mph 90% 0 in 37.00 W/m2
15:45 51.4 °F 48.6 °F 30 in South 10.1 mph 11 mph 90% 0 in 37.00 W/m2
15:50 51.4 °F 48.6 °F 29.9 in SSW 8.9 mph 14 mph 90% 0 in 44.00 W/m2
15:55 51.4 °F 48.6 °F 29.9 in South 8.1 mph 12 mph 90% 0 in 40.00 W/m2
16:00 51.4 °F 48.6 °F 30 in SW 8.1 mph 10 mph 90% 0 in 32.00 W/m2
16:05 51.4 °F 48.6 °F 30 in SW 8.1 mph 10 mph 90% 0 in 18.00 W/m2
16:10 51.3 °F 48.7 °F 29.9 in SW 2.9 mph 9 mph 91% 0 in 18.00 W/m2
16:15 51.3 °F 48.7 °F 30 in SSW 4.9 mph 15 mph 91% 0 in 19.00 W/m2
16:20 51.3 °F 48.7 °F 29.9 in SSW 2.9 mph 16 mph 91% 0 in 19.00 W/m2
16:25 51.3 °F 48.7 °F 30 in SW 4 mph 8 mph 91% 0 in 18.00 W/m2
16:30 51.1 °F 48.6 °F 29.9 in SSW 4 mph 10 mph 91% 0 in 18.00 W/m2
16:35 51.1 °F 48.6 °F 29.9 in SW 8.1 mph 13 mph 91% 0 in 16.00 W/m2
16:40 51.1 °F 48.9 °F 30 in WSW 6 mph 13 mph 92% 0 in 12.00 W/m2
16:45 51.1 °F 48.9 °F 30 in SW 6 mph 16 mph 92% 0 in 18.00 W/m2
16:50 51.1 °F 48.9 °F 29.9 in SW 6 mph 10 mph 92% 0 in 11.00 W/m2
16:55 51.3 °F 49.1 °F 29.9 in SW 8.1 mph 12 mph 92% 0 in 9.00 W/m2
17:00 51.3 °F 49.1 °F 30 in SSW 4 mph 8 mph 92% 0 in 7.00 W/m2
17:05 51.3 °F 49.1 °F 30 in SW 8.1 mph 17 mph 92% 0 in 5.00 W/m2
17:10 51.3 °F 49.1 °F 30 in South 8.9 mph 14 mph 92% 0 in 0.00 W/m2
17:15 51.3 °F 49.1 °F 30 in SSW 6 mph 11 mph 92% 0 in 0.00 W/m2
17:21 51.3 °F 49.1 °F 30 in SSW 8.1 mph 10 mph 92% 0 in 0.00 W/m2
17:25 51.3 °F 49.1 °F 30 in WSW 4.9 mph 10 mph 92% 0 in 0.00 W/m2
17:30 51.3 °F 49.1 °F 30 in SSW 4 mph 12 mph 92% 0.01 in 0.00 W/m2
17:35 51.3 °F 49.1 °F 30 in SSW 8.1 mph 13 mph 92% 0.01 in 0.00 W/m2
17:40 51.4 °F 49.3 °F 30 in SSW 8.9 mph 11 mph 92% 0.01 in 0.00 W/m2
17:45 51.4 °F 49.3 °F 30 in SSW 8.9 mph 17 mph 92% 0.01 in 0.00 W/m2
17:50 51.4 °F 49.3 °F 30 in South 4.9 mph 22 mph 92% 0.01 in 0.00 W/m2
17:55 51.4 °F 49.3 °F 30 in SSW 4.9 mph 10 mph 92% 0.01 in 0.00 W/m2
18:00 51.4 °F 49.3 °F 30 in WSW 6.9 mph 10 mph 92% 0.01 in 0.00 W/m2
18:05 51.4 °F 49.3 °F 30 in South 6.9 mph 11 mph 92% 0.01 in 0.00 W/m2
18:10 51.4 °F 49.3 °F 30 in SSW 2.9 mph 13 mph 92% 0.02 in 0.00 W/m2
18:15 51.4 °F 49.3 °F 30 in SW 4.9 mph 11 mph 92% 0.02 in 0.00 W/m2
18:20 51.4 °F 49.3 °F 30 in SW 4.9 mph 10 mph 92% 0.02 in 0.00 W/m2
18:25 51.4 °F 49.3 °F 30 in SSW 2 mph 7 mph 92% 0.03 in 0.00 W/m2
18:30 51.4 °F 49.3 °F 30 in South 4 mph 9 mph 92% 0.02 in 0.00 W/m2
18:35 51.6 °F 49.5 °F 29.9 in SW 6.9 mph 13 mph 92% 0.02 in 0.00 W/m2
18:40 51.4 °F 49.3 °F 29.9 in SW 4.9 mph 12 mph 92% 0.02 in 0.00 W/m2
18:45 51.6 °F 49.5 °F 29.9 in SSW 4 mph 14 mph 92% 0.02 in 0.00 W/m2
18:50 51.6 °F 49.5 °F 29.9 in SW 6 mph 12 mph 92% 0.02 in 0.00 W/m2
18:56 51.6 °F 49.6 °F 29.9 in SW 12.1 mph 15 mph 93% 0.02 in 0.00 W/m2
19:00 51.8 °F 49.8 °F 29.9 in SSW 6.9 mph 11 mph 93% 0.02 in 0.00 W/m2
19:05 51.8 °F 49.6 °F 29.9 in SW 8.1 mph 15 mph 92% 0.02 in 0.00 W/m2
19:10 52 °F 49.6 °F 29.9 in South 4.9 mph 11 mph 92% 0.02 in 0.00 W/m2
19:15 52 °F 49.6 °F 29.9 in South 4 mph 10 mph 92% 0.02 in 0.00 W/m2
19:20 52 °F 49.6 °F 29.9 in SSW 6 mph 8 mph 92% 0.01 in 0.00 W/m2
19:25 52 °F 49.6 °F 29.9 in WSW 6 mph 12 mph 92% 0 in 0.00 W/m2
19:30 52 °F 49.6 °F 29.9 in WSW 4 mph 9 mph 92% 0 in 0.00 W/m2
19:35 52 °F 49.6 °F 29.9 in SW 6 mph 8 mph 92% 0 in 0.00 W/m2
19:40 52 °F 49.6 °F 29.9 in SW 4.9 mph 8 mph 92% 0 in 0.00 W/m2
19:45 52 °F 49.6 °F 29.9 in SSW 2.9 mph 9 mph 92% 0 in 0.00 W/m2
19:50 52.2 °F 49.8 °F 29.9 in SSW 6 mph 11 mph 92% 0 in 0.00 W/m2
19:55 52.2 °F 49.8 °F 29.9 in WSW 11 mph 12 mph 92% 0 in 0.00 W/m2
20:00 52.2 °F 49.8 °F 29.9 in SSW 8.9 mph 11 mph 92% 0 in 0.00 W/m2
20:05 52.2 °F 49.8 °F 29.9 in SW 6.9 mph 10 mph 92% 0.01 in 0.00 W/m2
20:10 52.2 °F 49.8 °F 29.9 in SSW 4.9 mph 10 mph 92% 0.01 in 0.00 W/m2
20:15 52.2 °F 49.8 °F 29.9 in SW 6.9 mph 9 mph 92% 0.01 in 0.00 W/m2
20:20 52.2 °F 49.8 °F 29.9 in WSW 6 mph 8 mph 92% 0.01 in 0.00 W/m2
20:25 52 °F 49.6 °F 29.9 in SW 4.9 mph 6 mph 92% 0.02 in 0.00 W/m2
20:30 52 °F 49.6 °F 29.9 in SW 8.1 mph 9 mph 92% 0.02 in 0.00 W/m2
20:35 52.2 °F 50.2 °F 29.9 in WSW 6 mph 10 mph 93% 0.02 in 0.00 W/m2
20:40 52.2 °F 50.2 °F 29.9 in SSW 4 mph 8 mph 93% 0.02 in 0.00 W/m2
20:45 52 °F 50 °F 29.9 in SSW 2.9 mph 7 mph 93% 0.02 in 0.00 W/m2
20:50 52.2 °F 50.2 °F 29.9 in SW 4.9 mph 7 mph 93% 0.02 in 0.00 W/m2
20:55 52.2 °F 50.2 °F 29.9 in West 4.9 mph 9 mph 93% 0.02 in 0.00 W/m2
21:00 52.2 °F 50.2 °F 29.9 in West 4 mph 9 mph 93% 0.03 in 0.00 W/m2
21:05 52.2 °F 50.2 °F 29.9 in SW 6 mph 9 mph 93% 0.02 in 0.00 W/m2
21:10 52.2 °F 50.2 °F 29.9 in WSW 8.1 mph 11 mph 93% 0.03 in 0.00 W/m2
21:15 52.2 °F 50.2 °F 29.9 in WSW 4 mph 9 mph 93% 0.03 in 0.00 W/m2
21:20 52.2 °F 50.2 °F 29.9 in SSW 6.9 mph 10 mph 93% 0.03 in 0.00 W/m2
21:25 52.2 °F 50.2 °F 29.9 in West 2.9 mph 11 mph 93% 0.02 in 0.00 W/m2
21:30 52.2 °F 50.2 °F 29.9 in WSW 6.9 mph 11 mph 93% 0.02 in 0.00 W/m2
21:35 52.2 °F 50.2 °F 29.9 in SW 10.1 mph 11 mph 93% 0.02 in 0.00 W/m2
21:40 52.3 °F 50.4 °F 29.9 in SW 4.9 mph 8 mph 93% 0.02 in 0.00 W/m2
21:45 52.3 °F 50.4 °F 29.9 in SSW 4.9 mph 9 mph 93% 0.02 in 0.00 W/m2
21:50 52.3 °F 50.4 °F 29.9 in WSW 4.9 mph 10 mph 93% 0.02 in 0.00 W/m2
21:55 52.3 °F 50.4 °F 29.9 in WSW 8.1 mph 10 mph 93% 0.02 in 0.00 W/m2
22:00 52.3 °F 50.4 °F 29.9 in WSW 4.9 mph 7 mph 93% 0.01 in 0.00 W/m2
22:05 52.3 °F 50.4 °F 29.9 in SW 4 mph 9 mph 93% 0.01 in 0.00 W/m2
22:10 52.3 °F 50.4 °F 29.9 in SW 4 mph 8 mph 93% 0 in 0.00 W/m2
22:15 52.3 °F 50.4 °F 29.9 in SW 6 mph 7 mph 93% 0 in 0.00 W/m2
22:20 52.3 °F 50.4 °F 29.9 in West 6.9 mph 10 mph 93% 0 in 0.00 W/m2
22:25 52.3 °F 50.4 °F 29.9 in WSW 8.1 mph 10 mph 93% 0 in 0.00 W/m2
22:30 52.3 °F 50.4 °F 29.9 in SW 8.1 mph 10 mph 93% 0.01 in 0.00 W/m2
22:35 52.3 °F 50.4 °F 29.9 in West 4 mph 7 mph 93% 0.02 in 0.00 W/m2
22:40 52.2 °F 50.2 °F 29.9 in West 6 mph 8 mph 93% 0.02 in 0.00 W/m2
22:45 52.2 °F 50.2 °F 29.9 in SW 6 mph 8 mph 93% 0.03 in 0.00 W/m2
22:50 52.2 °F 50.2 °F 29.9 in SSW 2.9 mph 3 mph 93% 0.03 in 0.00 W/m2
22:55 52.2 °F 50.2 °F 29.9 in WSW 6 mph 9 mph 93% 0.04 in 0.00 W/m2
23:00 52.2 °F 50.2 °F 29.9 in SW 4.9 mph 9 mph 93% 0.04 in 0.00 W/m2
23:05 52.2 °F 50.2 °F 29.9 in South 6.9 mph 7 mph 93% 0.05 in 0.00 W/m2
23:10 52.2 °F 50.2 °F 29.9 in SSW 6 mph 9 mph 93% 0.06 in 0.00 W/m2
23:15 52.2 °F 50.2 °F 29.9 in WSW 4 mph 7 mph 93% 0.06 in 0.00 W/m2
23:20 52.2 °F 50.2 °F 29.9 in SW 4 mph 4 mph 93% 0.07 in 0.00 W/m2
23:25 52 °F 50 °F 29.9 in SSW 0.9 mph 4 mph 93% 0.08 in 0.00 W/m2
23:30 52 °F 50 °F 29.9 in SW 4 mph 6 mph 93% 0.08 in 0.00 W/m2
23:35 52 °F 50 °F 29.9 in SW 2 mph 6 mph 93% 0.07 in 0.00 W/m2
23:40 52 °F 50 °F 29.9 in SSW 6 mph 6 mph 93% 0.06 in 0.00 W/m2
23:45 52 °F 50 °F 29.9 in WSW 4 mph 7 mph 93% 0.06 in 0.00 W/m2
23:50 52 °F 50.4 °F 29.9 in SSW 0.9 mph 7 mph 94% 0.06 in 0.00 W/m2
23:55 52 °F 50.4 °F 29.9 in WSW 4 mph 6 mph 94% 0.05 in 0.00 W/m2